createdAt,value
2022-10-30T00:00:21.283Z,16.07
2022-10-30T00:01:18.496Z,16.07
2022-10-30T00:02:19.555Z,16.04
2022-10-30T00:03:19.179Z,16.01
2022-10-30T00:04:22.704Z,15.98
2022-10-30T00:05:23.053Z,15.96
2022-10-30T00:06:18.708Z,15.95
2022-10-30T00:07:18.917Z,15.92
2022-10-30T00:08:24.204Z,15.93
2022-10-30T00:09:25.398Z,15.89
2022-10-30T00:10:27.627Z,15.91
2022-10-30T00:11:19.825Z,15.89
2022-10-30T00:12:21.777Z,15.88
2022-10-30T00:13:18.232Z,15.86
2022-10-30T00:14:18.769Z,15.84
2022-10-30T00:15:19.697Z,15.81
2022-10-30T00:16:22.075Z,15.80
2022-10-30T00:17:20.080Z,15.77
2022-10-30T00:18:19.321Z,15.77
2022-10-30T00:19:19.565Z,15.77
2022-10-30T00:20:18.762Z,15.77
2022-10-30T00:21:19.180Z,15.74
2022-10-30T00:22:19.147Z,15.73
2022-10-30T00:23:19.150Z,15.73
2022-10-30T00:24:21.514Z,15.70
2022-10-30T00:25:24.341Z,15.67
2022-10-30T00:26:23.610Z,15.66
2022-10-30T00:27:27.376Z,15.66
2022-10-30T00:28:24.305Z,15.64
2022-10-30T00:29:23.615Z,15.64
2022-10-30T00:30:23.095Z,15.62
2022-10-30T00:31:19.618Z,15.60
2022-10-30T00:32:28.183Z,15.59
2022-10-30T00:33:26.404Z,15.58
2022-10-30T00:34:21.397Z,15.56
2022-10-30T00:35:22.608Z,15.56
2022-10-30T00:36:24.473Z,15.55
2022-10-30T00:37:21.452Z,15.53
2022-10-30T00:38:22.543Z,15.51
2022-10-30T00:39:19.667Z,15.51
2022-10-30T00:40:26.024Z,15.49
2022-10-30T00:41:20.296Z,15.51
2022-10-30T00:42:20.259Z,15.51
2022-10-30T00:43:19.605Z,15.49
2022-10-30T00:44:19.896Z,15.48
2022-10-30T00:45:19.671Z,15.48
2022-10-30T00:46:20.660Z,15.49
2022-10-30T00:47:26.491Z,15.46
2022-10-30T00:48:22.191Z,15.44
2022-10-30T00:49:20.491Z,15.44
2022-10-30T00:50:19.148Z,15.43
2022-10-30T00:51:19.647Z,15.43
2022-10-30T00:52:19.557Z,15.44
2022-10-30T00:53:20.742Z,15.44
2022-10-30T00:54:19.406Z,15.41
2022-10-30T00:55:20.324Z,15.41
2022-10-30T00:56:18.009Z,15.41
2022-10-30T00:57:19.110Z,15.40
2022-10-30T00:58:19.043Z,15.35
2022-10-30T00:59:19.166Z,15.38
2022-10-30T01:00:19.080Z,15.37
2022-10-30T01:01:18.180Z,15.35
2022-10-30T01:02:19.470Z,15.35
2022-10-30T01:03:18.670Z,15.34
2022-10-30T01:04:16.699Z,15.34
2022-10-30T01:05:17.947Z,15.33
2022-10-30T01:06:17.176Z,15.33
2022-10-30T01:07:18.326Z,15.33
2022-10-30T01:08:20.141Z,15.28
2022-10-30T01:09:18.367Z,15.28
2022-10-30T01:10:16.342Z,15.28
2022-10-30T01:11:16.236Z,15.27
2022-10-30T01:12:17.021Z,15.25
2022-10-30T01:13:16.286Z,15.23
2022-10-30T01:14:20.440Z,15.22
2022-10-30T01:15:17.098Z,15.20
2022-10-30T01:16:17.852Z,15.19
2022-10-30T01:17:17.210Z,15.19
2022-10-30T01:18:17.493Z,15.18
2022-10-30T01:19:21.337Z,15.18
2022-10-30T01:20:22.446Z,15.16
2022-10-30T01:21:16.676Z,15.15
2022-10-30T01:22:16.134Z,15.15
2022-10-30T01:23:15.826Z,15.15
2022-10-30T01:24:15.982Z,15.12
2022-10-30T01:25:17.740Z,15.11
2022-10-30T01:26:23.250Z,15.05
2022-10-30T01:27:17.385Z,15.07
2022-10-30T01:28:16.381Z,15.05
2022-10-30T01:29:15.967Z,15.05
2022-10-30T01:30:16.168Z,15.03
2022-10-30T01:31:16.950Z,15.00
2022-10-30T01:32:18.080Z,15.00
2022-10-30T01:33:25.506Z,14.98
2022-10-30T01:34:20.050Z,14.98
2022-10-30T01:35:17.118Z,15.00
2022-10-30T01:36:16.064Z,14.98
2022-10-30T01:37:16.027Z,15.00
2022-10-30T01:38:18.878Z,14.97
2022-10-30T01:39:18.291Z,14.97
2022-10-30T01:40:21.612Z,14.97
2022-10-30T01:41:17.685Z,14.97
2022-10-30T01:42:25.209Z,14.97
2022-10-30T01:43:22.005Z,14.98
2022-10-30T01:44:22.184Z,14.98
2022-10-30T01:45:21.351Z,14.98
2022-10-30T01:46:19.462Z,14.98
2022-10-30T01:47:29.347Z,14.98
2022-10-30T01:48:25.354Z,14.98
2022-10-30T01:49:25.169Z,15.00
2022-10-30T01:50:25.829Z,15.01
2022-10-30T01:51:21.434Z,15.01
2022-10-30T01:52:17.968Z,15.01
2022-10-30T01:53:18.264Z,15.01
2022-10-30T01:54:19.165Z,15.01
2022-10-30T01:55:22.760Z,15.01
2022-10-30T01:56:21.358Z,14.98
2022-10-30T01:57:21.989Z,14.97
2022-10-30T01:58:21.709Z,14.97
2022-10-30T01:59:28.145Z,14.98
2022-10-30T02:00:24.794Z,14.97
2022-10-30T02:01:27.689Z,14.97
2022-10-30T02:02:18.325Z,14.98
2022-10-30T02:03:23.977Z,14.97
2022-10-30T02:04:20.964Z,14.97
2022-10-30T02:05:19.268Z,14.95
2022-10-30T02:06:19.980Z,14.97
2022-10-30T02:07:21.803Z,14.95
2022-10-30T02:08:19.757Z,14.97
2022-10-30T02:09:21.799Z,14.97
2022-10-30T02:10:18.825Z,14.95
2022-10-30T02:11:15.736Z,14.95
2022-10-30T02:12:15.333Z,14.94
2022-10-30T02:13:15.666Z,14.91
2022-10-30T02:14:16.673Z,14.91
2022-10-30T02:15:17.048Z,14.90
2022-10-30T02:16:20.135Z,14.86
2022-10-30T02:17:19.682Z,14.86
2022-10-30T02:18:16.081Z,14.86
2022-10-30T02:19:15.300Z,14.86
2022-10-30T02:20:15.201Z,14.86
2022-10-30T02:21:15.110Z,14.83
2022-10-30T02:22:15.352Z,14.79
2022-10-30T02:23:15.637Z,14.74
2022-10-30T02:24:17.233Z,14.72
2022-10-30T02:25:20.137Z,14.72
2022-10-30T02:26:22.121Z,14.72
2022-10-30T02:27:17.852Z,14.72
2022-10-30T02:28:15.294Z,14.72
2022-10-30T02:29:15.326Z,14.72
2022-10-30T02:30:15.487Z,14.72
2022-10-30T02:31:16.223Z,14.72
2022-10-30T02:32:16.128Z,14.72
2022-10-30T02:34:15.686Z,14.71
2022-10-30T02:35:15.570Z,14.72
2022-10-30T02:36:15.308Z,14.71
2022-10-30T02:37:15.851Z,14.71
2022-10-30T02:38:15.411Z,14.71
2022-10-30T02:39:23.239Z,14.72
2022-10-30T02:40:18.695Z,14.72
2022-10-30T02:41:15.673Z,14.72
2022-10-30T02:42:15.047Z,14.72
2022-10-30T02:43:14.907Z,14.71
2022-10-30T02:44:15.149Z,14.71
2022-10-30T02:45:15.012Z,14.69
2022-10-30T02:46:15.581Z,14.69
2022-10-30T02:47:15.723Z,14.67
2022-10-30T02:48:16.514Z,14.66
2022-10-30T02:49:14.909Z,14.66
2022-10-30T02:50:15.231Z,14.67
2022-10-30T02:51:14.914Z,14.66
2022-10-30T02:52:15.519Z,14.64
2022-10-30T02:53:15.729Z,14.66
2022-10-30T02:54:16.846Z,14.66
2022-10-30T02:55:25.971Z,14.64
2022-10-30T03:04:35.647Z,14.67
2022-10-30T03:05:33.169Z,14.67
2022-10-30T03:06:34.240Z,14.66
2022-10-30T03:07:31.388Z,14.64
2022-10-30T03:08:31.617Z,14.64
2022-10-30T03:09:32.391Z,14.66
2022-10-30T03:10:32.229Z,14.64
2022-10-30T03:11:31.636Z,14.63
2022-10-30T03:12:31.464Z,14.63
2022-10-30T03:13:33.709Z,14.63
2022-10-30T03:14:58.673Z,14.63
2022-10-30T03:15:34.874Z,14.61
2022-10-30T03:16:30.510Z,14.61
2022-10-30T03:17:30.918Z,14.61
2022-10-30T03:18:31.682Z,14.60
2022-10-30T03:19:33.108Z,14.59
2022-10-30T03:20:39.261Z,14.59
2022-10-30T03:22:59.034Z,14.56
2022-10-30T03:23:55.795Z,14.54
2022-10-30T03:24:55.508Z,14.53
2022-10-30T03:25:55.184Z,14.52
2022-10-30T03:26:56.439Z,14.49
2022-10-30T03:27:55.635Z,14.48
2022-10-30T03:28:56.867Z,14.46
2022-10-30T03:29:55.533Z,14.46
2022-10-30T03:30:54.604Z,14.45
2022-10-30T03:31:55.048Z,14.44
2022-10-30T03:32:56.232Z,14.42
2022-10-30T03:33:55.226Z,14.39
2022-10-30T03:34:57.269Z,14.38
2022-10-30T03:35:55.531Z,14.38
2022-10-30T03:36:54.243Z,14.36
2022-10-30T03:37:53.950Z,14.38
2022-10-30T03:38:56.102Z,14.35
2022-10-30T03:39:57.340Z,14.34
2022-10-30T03:40:55.562Z,14.31
2022-10-30T03:42:00.258Z,14.29
2022-10-30T03:42:56.554Z,14.29
2022-10-30T03:43:59.560Z,14.27
2022-10-30T03:44:57.577Z,14.26
2022-10-30T03:45:54.413Z,14.27
2022-10-30T03:46:55.869Z,14.26
2022-10-30T03:47:59.573Z,14.26
2022-10-30T03:48:55.389Z,14.24
2022-10-30T03:49:55.375Z,14.24
2022-10-30T03:50:53.935Z,14.23
2022-10-30T03:51:54.150Z,14.21
2022-10-30T03:52:56.541Z,14.20
2022-10-30T03:53:53.530Z,14.20
2022-10-30T03:54:54.219Z,14.20
2022-10-30T03:55:54.909Z,14.17
2022-10-30T03:56:55.093Z,14.19
2022-10-30T03:57:53.785Z,14.17
2022-10-30T03:58:55.825Z,14.17
2022-10-30T03:59:52.907Z,14.16
2022-10-30T04:00:53.816Z,14.16
2022-10-30T04:01:56.272Z,14.17
2022-10-30T04:02:54.293Z,14.13
2022-10-30T04:03:54.550Z,14.13
2022-10-30T04:04:54.742Z,14.16
2022-10-30T04:05:53.716Z,14.16
2022-10-30T04:06:52.302Z,14.13
2022-10-30T04:07:52.574Z,14.13
2022-10-30T04:08:52.533Z,14.11
2022-10-30T04:09:53.554Z,14.09
2022-10-30T04:10:53.675Z,14.08
2022-10-30T04:11:55.411Z,14.08
2022-10-30T04:12:53.385Z,14.06
2022-10-30T04:13:52.902Z,14.08
2022-10-30T04:14:54.038Z,14.06
2022-10-30T04:15:57.637Z,14.06
2022-10-30T04:16:55.548Z,14.06
2022-10-30T04:17:56.453Z,14.06
2022-10-30T04:18:53.561Z,14.05
2022-10-30T04:19:57.406Z,14.05
2022-10-30T04:20:58.100Z,14.06
2022-10-30T04:21:57.216Z,14.05
2022-10-30T04:22:55.472Z,14.05
2022-10-30T04:23:55.140Z,14.05
2022-10-30T04:24:58.473Z,14.06
2022-10-30T04:25:55.006Z,14.05
2022-10-30T04:26:53.746Z,14.06
2022-10-30T04:27:55.312Z,14.06
2022-10-30T04:28:56.784Z,14.08
2022-10-30T04:29:53.956Z,14.04
2022-10-30T04:30:56.524Z,14.05
2022-10-30T04:31:58.205Z,14.04
2022-10-30T04:33:03.562Z,14.04
2022-10-30T04:33:59.262Z,14.02
2022-10-30T04:34:54.871Z,14.04
2022-10-30T04:35:54.520Z,14.02
2022-10-30T04:36:54.976Z,14.02
2022-10-30T04:37:54.599Z,14.01
2022-10-30T04:38:54.987Z,13.99
2022-10-30T04:39:56.226Z,13.98
2022-10-30T04:40:54.349Z,13.99
2022-10-30T04:41:53.764Z,13.96
2022-10-30T04:42:54.061Z,13.96
2022-10-30T04:43:54.844Z,13.94
2022-10-30T04:44:53.115Z,13.93
2022-10-30T04:45:54.779Z,13.91
2022-10-30T04:46:53.583Z,13.91
2022-10-30T04:47:54.435Z,13.90
2022-10-30T04:48:54.442Z,13.90
2022-10-30T04:49:57.874Z,13.90
2022-10-30T04:50:58.482Z,13.88
2022-10-30T04:52:04.269Z,13.87
2022-10-30T04:52:58.796Z,13.87
2022-10-30T04:53:54.407Z,13.87
2022-10-30T04:54:56.277Z,13.86
2022-10-30T04:55:54.489Z,13.86
2022-10-30T04:56:51.768Z,13.86
2022-10-30T04:57:53.641Z,13.86
2022-10-30T04:58:53.642Z,13.83
2022-10-30T04:59:52.652Z,13.81
2022-10-30T05:00:55.010Z,13.80
2022-10-30T05:01:53.587Z,13.76
2022-10-30T05:02:55.152Z,13.76
2022-10-30T05:03:54.934Z,13.76
2022-10-30T05:04:53.455Z,13.75
2022-10-30T05:05:52.631Z,13.73
2022-10-30T05:06:51.833Z,13.73
2022-10-30T05:07:52.304Z,13.71
2022-10-30T05:08:55.202Z,13.69
2022-10-30T05:09:53.774Z,13.69
2022-10-30T05:10:54.033Z,13.68
2022-10-30T05:11:58.901Z,13.68
2022-10-30T05:13:01.619Z,13.68
2022-10-30T05:13:58.656Z,13.68
2022-10-30T05:14:54.228Z,13.68
2022-10-30T05:16:02.329Z,13.63
2022-10-30T05:16:56.682Z,13.63
2022-10-30T05:17:56.432Z,13.62
2022-10-30T05:19:02.480Z,13.61
2022-10-30T05:20:00.959Z,13.61
2022-10-30T05:20:57.287Z,13.59
2022-10-30T05:21:52.860Z,13.61
2022-10-30T05:22:52.376Z,13.59
2022-10-30T05:23:53.888Z,13.59
2022-10-30T05:24:53.554Z,13.57
2022-10-30T05:25:51.377Z,13.55
2022-10-30T05:26:51.282Z,13.53
2022-10-30T05:27:52.606Z,13.50
2022-10-30T05:28:53.768Z,13.48
2022-10-30T05:29:55.091Z,13.47
2022-10-30T05:30:52.240Z,13.47
2022-10-30T05:31:53.096Z,13.46
2022-10-30T05:32:52.871Z,13.44
2022-10-30T05:33:52.045Z,13.43
2022-10-30T05:34:52.600Z,13.44
2022-10-30T05:35:51.751Z,13.43
2022-10-30T05:36:51.461Z,13.41
2022-10-30T05:37:53.001Z,13.38
2022-10-30T05:38:53.617Z,13.36
2022-10-30T05:39:53.493Z,13.36
2022-10-30T05:40:54.723Z,13.36
2022-10-30T05:41:56.687Z,13.35
2022-10-30T05:42:54.352Z,13.35
2022-10-30T05:43:55.585Z,13.35
2022-10-30T05:45:00.774Z,13.35
2022-10-30T05:45:58.025Z,13.35
2022-10-30T05:47:57.149Z,13.31
2022-10-30T05:49:14.019Z,13.31
2022-10-30T06:17:56.621Z,12.96
2022-10-30T06:18:51.891Z,12.96
2022-10-30T06:19:51.717Z,12.96
2022-10-30T06:20:51.520Z,12.95
2022-10-30T06:21:52.695Z,12.98
2022-10-30T06:22:52.619Z,12.95
2022-10-30T06:23:52.318Z,12.96
2022-10-30T06:24:52.955Z,12.95
2022-10-30T06:25:52.025Z,12.94
2022-10-30T06:26:52.007Z,12.94
2022-10-30T06:27:52.413Z,12.92
2022-10-30T06:28:53.265Z,12.94
2022-10-30T06:29:54.943Z,12.94
2022-10-30T06:30:59.363Z,12.95
2022-10-30T06:31:58.743Z,12.92
2022-10-30T06:32:52.251Z,12.94
2022-10-30T06:33:52.601Z,12.94
2022-10-30T06:34:58.146Z,12.94
2022-10-30T06:36:06.770Z,12.92
2022-10-30T06:36:59.177Z,12.92
2022-10-30T06:37:56.424Z,12.92
2022-10-30T06:38:53.215Z,12.92
2022-10-30T06:39:52.621Z,12.92
2022-10-30T06:40:51.589Z,12.92
2022-10-30T06:41:52.030Z,12.89
2022-10-30T06:42:53.968Z,12.89
2022-10-30T06:43:54.961Z,12.89
2022-10-30T06:44:56.584Z,12.89
2022-10-30T06:45:52.137Z,12.87
2022-10-30T06:46:52.265Z,12.88
2022-10-30T06:48:00.424Z,12.88
2022-10-30T07:33:43.034Z,13.31
2022-10-30T07:34:41.564Z,13.32
2022-10-30T07:35:42.738Z,13.38
2022-10-30T07:36:40.212Z,13.47
2022-10-30T07:37:40.083Z,13.69
2022-10-30T07:38:40.139Z,14.01
2022-10-30T07:39:40.553Z,14.29
2022-10-30T07:40:41.135Z,14.52
2022-10-30T07:41:41.390Z,14.69
2022-10-30T07:42:40.494Z,14.90
2022-10-30T07:43:40.813Z,15.11
2022-10-30T07:44:40.410Z,15.19
2022-10-30T07:45:42.856Z,15.13
2022-10-30T07:46:40.119Z,15.09
2022-10-30T07:47:40.168Z,15.16
2022-10-30T07:48:40.631Z,15.27
2022-10-30T07:49:40.501Z,15.30
2022-10-30T07:50:40.105Z,15.34
2022-10-30T07:51:40.050Z,15.37
2022-10-30T07:52:40.768Z,15.34
2022-10-30T07:53:42.175Z,15.27
2022-10-30T07:54:40.576Z,15.23
2022-10-30T07:55:40.064Z,15.20
2022-10-30T07:56:39.935Z,15.27
2022-10-30T07:57:40.484Z,15.34
2022-10-30T07:58:45.414Z,15.38
2022-10-30T07:59:42.056Z,15.35
2022-10-30T08:00:42.884Z,15.33
2022-10-30T08:01:45.079Z,15.37
2022-10-30T08:02:40.779Z,15.46
2022-10-30T08:03:39.941Z,15.55
2022-10-30T08:04:39.712Z,15.56
2022-10-30T08:05:39.894Z,15.58
2022-10-30T08:06:39.964Z,15.59
2022-10-30T08:07:40.376Z,15.59
2022-10-30T08:08:43.110Z,15.53
2022-10-30T08:09:42.888Z,15.52
2022-10-30T08:11:31.978Z,15.55
2022-10-30T08:13:28.826Z,15.53
2022-10-30T08:14:27.084Z,15.51
2022-10-30T08:15:30.484Z,15.48
2022-10-30T08:16:26.693Z,15.44
2022-10-30T08:17:38.635Z,15.43
2022-10-30T08:18:34.310Z,15.44
2022-10-30T08:19:34.367Z,15.44
2022-10-30T08:20:30.523Z,15.48
2022-10-30T08:21:29.304Z,15.48
2022-10-30T08:22:28.080Z,15.51
2022-10-30T08:23:28.600Z,15.52
2022-10-30T08:24:35.663Z,15.52
2022-10-30T08:25:29.287Z,15.52
2022-10-30T08:26:28.688Z,15.51
2022-10-30T08:27:26.918Z,15.53
2022-10-30T08:28:31.819Z,15.58
2022-10-30T08:29:29.857Z,15.62
2022-10-30T08:30:26.389Z,15.68
2022-10-30T08:31:25.700Z,15.74
2022-10-30T08:32:26.650Z,15.78
2022-10-30T08:33:27.228Z,15.80
2022-10-30T08:34:28.251Z,15.80
2022-10-30T08:35:26.906Z,15.78
2022-10-30T08:36:27.649Z,15.81
2022-10-30T08:37:36.149Z,15.80
2022-10-30T08:38:35.984Z,15.81
2022-10-30T08:39:32.307Z,15.85
2022-10-30T08:40:27.673Z,15.88
2022-10-30T08:41:35.202Z,15.91
2022-10-30T08:42:27.180Z,15.93
2022-10-30T08:43:27.888Z,15.96
2022-10-30T08:44:26.693Z,15.98
2022-10-30T08:45:31.634Z,16.01
2022-10-30T08:46:32.864Z,16.06
2022-10-30T08:47:27.936Z,16.08
2022-10-30T08:48:31.634Z,16.11
2022-10-30T08:49:26.801Z,16.14
2022-10-30T08:50:25.167Z,16.18
2022-10-30T08:51:25.832Z,16.22
2022-10-30T08:52:25.228Z,16.27
2022-10-30T08:53:28.407Z,16.30
2022-10-30T08:54:29.904Z,16.32
2022-10-30T08:55:27.641Z,16.32
2022-10-30T08:56:25.007Z,16.33
2022-10-30T08:57:26.667Z,16.36
2022-10-30T08:58:30.265Z,16.36
2022-10-30T08:59:25.681Z,16.40
2022-10-30T09:00:28.108Z,16.41
2022-10-30T09:01:26.314Z,16.41
2022-10-30T09:02:25.513Z,16.42
2022-10-30T09:03:32.161Z,16.45
2022-10-30T09:08:39.805Z,16.57
2022-10-30T09:09:05.420Z,16.63
2022-10-30T09:10:05.212Z,16.69
2022-10-30T09:11:06.038Z,16.72
2022-10-30T09:12:04.577Z,16.78
2022-10-30T09:13:04.237Z,16.82
2022-10-30T09:14:07.955Z,16.84
2022-10-30T09:15:08.291Z,16.87
2022-10-30T09:16:10.620Z,16.87
2022-10-30T09:17:11.817Z,16.90
2022-10-30T09:19:22.733Z,17.00
2022-10-30T09:20:29.812Z,17.03
2022-10-30T09:21:17.752Z,17.06
2022-10-30T09:22:17.644Z,17.15
2022-10-30T09:23:16.454Z,17.24
2022-10-30T09:24:15.298Z,17.35
2022-10-30T09:25:15.322Z,17.43
2022-10-30T09:26:18.397Z,17.51
2022-10-30T09:27:16.080Z,17.65
2022-10-30T09:28:15.497Z,17.76
2022-10-30T09:29:16.704Z,17.80
2022-10-30T09:30:15.767Z,17.91
2022-10-30T09:31:15.804Z,18.05
2022-10-30T09:32:15.501Z,18.20
2022-10-30T09:33:15.267Z,18.26
2022-10-30T09:34:15.642Z,18.36
2022-10-30T09:35:16.276Z,18.46
2022-10-30T09:36:19.715Z,18.62
2022-10-30T09:37:16.224Z,18.66
2022-10-30T09:38:16.683Z,18.62
2022-10-30T09:39:16.890Z,18.57
2022-10-30T09:40:15.925Z,18.50
2022-10-30T09:41:15.104Z,18.42
2022-10-30T09:42:16.824Z,18.36
2022-10-30T09:43:15.259Z,18.34
2022-10-30T09:44:15.857Z,18.34
2022-10-30T09:45:28.813Z,18.35
2022-10-30T09:46:17.455Z,18.35
2022-10-30T09:47:18.200Z,18.36
2022-10-30T09:48:16.793Z,18.38
2022-10-30T09:49:16.956Z,18.39
2022-10-30T09:50:15.120Z,18.41
2022-10-30T09:51:14.969Z,18.41
2022-10-30T09:52:15.409Z,18.44
2022-10-30T09:53:15.184Z,18.47
2022-10-30T09:54:22.104Z,18.53
2022-10-30T09:55:15.128Z,18.56
2022-10-30T09:56:15.055Z,18.64
2022-10-30T09:57:15.058Z,18.69
2022-10-30T09:58:15.126Z,18.76
2022-10-30T09:59:15.296Z,18.83
2022-10-30T10:00:14.795Z,18.90
2022-10-30T10:01:15.286Z,19.01
2022-10-30T10:02:15.020Z,19.15
2022-10-30T10:03:15.017Z,19.28
2022-10-30T10:04:15.320Z,19.43
2022-10-30T10:05:15.021Z,19.64
2022-10-30T10:06:19.259Z,19.83
2022-10-30T10:07:14.805Z,20.01
2022-10-30T10:08:14.989Z,20.08
2022-10-30T10:09:15.198Z,20.17
2022-10-30T10:10:15.689Z,20.35
2022-10-30T10:28:24.557Z,19.75
2022-10-30T10:31:40.495Z,19.79
2022-10-30T10:32:42.151Z,19.76
2022-10-30T10:34:54.707Z,19.76
2022-10-30T10:38:18.340Z,19.75
2022-10-30T10:40:48.533Z,19.75
2022-10-30T10:41:58.057Z,19.72
2022-10-30T10:49:13.663Z,20.04
2022-10-30T10:50:13.181Z,20.15
2022-10-30T11:03:39.915Z,21.30
2022-10-30T11:04:18.887Z,21.19
2022-10-30T11:05:18.754Z,21.15
2022-10-30T11:06:19.289Z,21.12
2022-10-30T11:07:21.950Z,21.09
2022-10-30T11:08:18.114Z,21.11
2022-10-30T11:09:20.440Z,21.03
2022-10-30T11:10:18.970Z,20.96
2022-10-30T11:11:17.854Z,20.93
2022-10-30T11:12:18.672Z,21.00
2022-10-30T11:13:17.895Z,21.06
2022-10-30T11:14:24.857Z,21.18
2022-10-30T11:15:24.231Z,21.36
2022-10-30T11:16:18.548Z,21.64
2022-10-30T11:17:22.520Z,21.89
2022-10-30T11:18:20.508Z,22.02
2022-10-30T11:19:18.363Z,22.08
2022-10-30T11:20:30.196Z,22.08
2022-10-30T11:21:19.935Z,22.12
2022-10-30T11:22:17.935Z,22.14
2022-10-30T11:23:18.864Z,22.14
2022-10-30T11:24:19.036Z,22.31
2022-10-30T11:25:26.877Z,22.30
2022-10-30T11:26:24.751Z,22.29
2022-10-30T11:27:20.379Z,22.24
2022-10-30T11:28:24.254Z,22.17
2022-10-30T11:29:23.852Z,22.09
2022-10-30T11:30:19.945Z,21.96
2022-10-30T11:31:19.080Z,21.74
2022-10-30T11:32:18.583Z,21.63
2022-10-30T11:33:28.628Z,21.53
2022-10-30T11:34:22.258Z,21.49
2022-10-30T11:35:20.788Z,21.43
2022-10-30T11:36:29.161Z,21.40
2022-10-30T11:37:28.574Z,21.37
2022-10-30T11:38:26.648Z,21.38
2022-10-30T11:39:18.353Z,21.37
2022-10-30T11:40:18.092Z,21.42
2022-10-30T11:41:23.747Z,21.40
2022-10-30T11:42:18.186Z,21.34
2022-10-30T11:43:17.556Z,21.33
2022-10-30T11:44:18.908Z,21.34
2022-10-30T11:45:18.439Z,21.40
2022-10-30T11:46:18.041Z,21.49
2022-10-30T11:47:18.447Z,21.61
2022-10-30T11:48:18.511Z,21.75
2022-10-30T11:49:18.907Z,21.82
2022-10-30T11:50:18.268Z,21.79
2022-10-30T11:51:19.213Z,21.77
2022-10-30T11:52:20.435Z,21.77
2022-10-30T11:53:17.195Z,21.75
2022-10-30T11:54:19.557Z,21.75
2022-10-30T11:55:19.832Z,21.75
2022-10-30T11:56:18.974Z,21.79
2022-10-30T11:57:18.319Z,21.89
2022-10-30T11:58:19.989Z,21.96
2022-10-30T11:59:18.765Z,22.01
2022-10-30T12:00:18.934Z,22.02
2022-10-30T12:01:17.213Z,22.08
2022-10-30T12:02:17.282Z,22.08
2022-10-30T12:03:17.859Z,22.12
2022-10-30T12:04:22.730Z,22.14
2022-10-30T12:05:21.691Z,22.17
2022-10-30T12:06:18.273Z,22.19
2022-10-30T12:08:39.589Z,22.20
2022-10-30T12:09:39.102Z,22.15
2022-10-30T12:10:37.149Z,22.14
2022-10-30T12:11:38.203Z,22.14
2022-10-30T12:12:36.922Z,22.31
2022-10-30T12:13:38.999Z,22.52
2022-10-30T12:14:40.007Z,22.67
2022-10-30T12:15:37.418Z,22.76
2022-10-30T12:16:37.237Z,22.88
2022-10-30T12:17:38.369Z,23.00
2022-10-30T12:18:40.747Z,23.04
2022-10-30T12:31:20.287Z,22.20
2022-10-30T12:32:18.460Z,22.29
2022-10-30T12:33:21.275Z,22.38
2022-10-30T12:34:15.683Z,22.49
2022-10-30T12:35:19.355Z,22.45
2022-10-30T12:36:15.202Z,22.49
2022-10-30T12:37:16.316Z,22.49
2022-10-30T12:38:19.416Z,22.54
2022-10-30T12:39:13.843Z,22.49
2022-10-30T12:40:17.269Z,22.36
2022-10-30T12:41:13.859Z,22.21
2022-10-30T12:42:14.433Z,22.23
2022-10-30T12:43:13.618Z,22.24
2022-10-30T12:44:21.246Z,22.26
2022-10-30T12:45:14.919Z,22.26
2022-10-30T12:46:14.058Z,22.27
2022-10-30T12:47:13.885Z,22.31
2022-10-30T12:48:16.791Z,22.29
2022-10-30T12:50:40.752Z,22.31
2022-10-30T12:51:26.406Z,22.30
2022-10-30T12:52:30.186Z,22.31
2022-10-30T12:53:28.985Z,22.35
2022-10-30T12:54:32.029Z,22.35
2022-10-30T12:55:30.993Z,22.31
2022-10-30T12:56:27.105Z,22.23
2022-10-30T13:00:58.095Z,22.09
2022-10-30T13:01:56.702Z,22.11
2022-10-30T13:02:52.564Z,22.09
2022-10-30T13:03:55.218Z,22.12
2022-10-30T13:04:52.480Z,22.15
2022-10-30T13:05:52.607Z,22.19
2022-10-30T13:06:53.208Z,22.20
2022-10-30T13:08:02.769Z,22.20
2022-10-30T13:09:00.018Z,22.19
2022-10-30T13:10:01.259Z,22.19
2022-10-30T13:10:55.182Z,22.17
2022-10-30T13:12:05.151Z,22.19
2022-10-30T13:12:53.043Z,22.23
2022-10-30T13:13:56.668Z,22.21
2022-10-30T13:15:06.329Z,22.21
2022-10-30T13:15:51.044Z,22.21
2022-10-30T13:16:54.517Z,22.20
2022-10-30T13:17:53.023Z,22.21
2022-10-30T13:22:54.798Z,22.06
2022-10-30T13:23:56.939Z,22.05
2022-10-30T13:25:00.764Z,21.99
2022-10-30T13:25:53.716Z,21.98
2022-10-30T13:26:54.106Z,21.94
2022-10-30T13:27:53.042Z,21.91
2022-10-30T13:28:56.612Z,21.89
2022-10-30T13:29:55.188Z,21.89
2022-10-30T13:30:54.320Z,21.89
2022-10-30T13:31:54.351Z,21.83
2022-10-30T13:32:59.268Z,21.86
2022-10-30T13:34:03.231Z,21.83
2022-10-30T13:34:53.219Z,21.83
2022-10-30T13:36:01.538Z,21.79
2022-10-30T13:36:55.225Z,21.73
2022-10-30T13:37:56.185Z,21.67
2022-10-30T13:38:59.870Z,21.64
2022-10-30T13:39:54.833Z,21.63
2022-10-30T13:41:00.745Z,21.61
2022-10-30T13:41:55.233Z,21.59
2022-10-30T13:42:57.227Z,21.59
2022-10-30T13:43:54.775Z,21.58
2022-10-30T13:45:04.701Z,21.59
2022-10-30T13:45:56.222Z,21.59
2022-10-30T13:47:02.372Z,21.59
2022-10-30T13:47:53.020Z,21.55
2022-10-30T13:48:53.428Z,21.49
2022-10-30T13:49:55.476Z,21.49
2022-10-30T13:52:04.354Z,21.52
2022-10-30T13:53:03.532Z,21.49
2022-10-30T13:54:03.594Z,21.51
2022-10-30T13:55:03.724Z,21.48
2022-10-30T13:56:03.455Z,21.48
2022-10-30T13:57:03.865Z,21.46
2022-10-30T13:58:05.380Z,21.46
2022-10-30T13:59:04.416Z,21.45
2022-10-30T14:00:05.561Z,21.43
2022-10-30T14:01:04.269Z,21.45
2022-10-30T14:02:04.046Z,21.45
2022-10-30T14:03:05.281Z,21.45
2022-10-30T14:04:05.484Z,21.45
2022-10-30T14:05:03.730Z,21.43
2022-10-30T14:06:04.423Z,21.45
2022-10-30T14:07:03.382Z,21.45
2022-10-30T14:08:06.198Z,21.45
2022-10-30T14:09:03.414Z,21.46
2022-10-30T14:10:03.314Z,21.48
2022-10-30T14:11:03.282Z,21.46
2022-10-30T14:12:03.301Z,21.45
2022-10-30T14:13:03.269Z,21.45
2022-10-30T14:14:03.225Z,21.43
2022-10-30T14:15:03.393Z,21.43
2022-10-30T14:16:03.251Z,21.38
2022-10-30T14:17:03.225Z,21.37
2022-10-30T14:18:03.233Z,21.36
2022-10-30T14:19:03.162Z,21.34
2022-10-30T14:20:06.142Z,21.34
2022-10-30T14:21:04.253Z,21.34
2022-10-30T14:22:03.931Z,21.34
2022-10-30T14:23:03.354Z,21.34
2022-10-30T14:24:03.134Z,21.34
2022-10-30T14:25:03.084Z,21.33
2022-10-30T14:26:03.088Z,21.34
2022-10-30T14:27:03.174Z,21.34
2022-10-30T14:28:03.217Z,21.33
2022-10-30T14:29:03.069Z,21.31
2022-10-30T14:30:03.142Z,21.31
2022-10-30T14:31:03.038Z,21.30
2022-10-30T14:32:03.086Z,21.27
2022-10-30T14:33:03.029Z,21.26
2022-10-30T14:34:03.016Z,21.22
2022-10-30T14:35:03.025Z,21.22
2022-10-30T14:36:03.038Z,21.22
2022-10-30T14:37:02.958Z,21.22
2022-10-30T14:38:02.907Z,21.22
2022-10-30T14:39:02.988Z,21.21
2022-10-30T14:40:02.961Z,21.19
2022-10-30T14:41:02.846Z,21.18
2022-10-30T14:42:03.128Z,21.16
2022-10-30T14:43:02.954Z,21.15
2022-10-30T14:44:02.909Z,21.13
2022-10-30T14:45:02.817Z,21.12
2022-10-30T14:46:02.870Z,21.11
2022-10-30T14:47:02.825Z,21.11
2022-10-30T14:49:56.130Z,21.06
2022-10-30T14:50:59.581Z,21.03
2022-10-30T14:51:54.604Z,20.96
2022-10-30T14:52:54.465Z,20.72
2022-10-30T14:53:54.451Z,20.50
2022-10-30T14:54:54.449Z,20.31
2022-10-30T14:55:54.457Z,20.17
2022-10-30T14:56:54.511Z,20.05
2022-10-30T14:57:54.384Z,19.97
2022-10-30T14:58:54.523Z,19.90
2022-10-30T14:59:54.388Z,19.85
2022-10-30T15:00:54.625Z,19.85
2022-10-30T15:01:54.551Z,19.82
2022-10-30T15:02:54.417Z,19.80
2022-10-30T15:03:54.301Z,19.79
2022-10-30T15:04:54.311Z,19.82
2022-10-30T15:05:54.487Z,19.80
2022-10-30T15:06:54.272Z,19.80
2022-10-30T15:07:54.281Z,19.80
2022-10-30T15:08:54.245Z,19.79
2022-10-30T15:09:54.287Z,19.82
2022-10-30T15:10:54.253Z,19.87
2022-10-30T15:11:54.262Z,19.90
2022-10-30T15:12:56.908Z,19.94
2022-10-30T15:13:55.239Z,19.97
2022-10-30T15:14:54.973Z,19.95
2022-10-30T15:15:54.227Z,19.92
2022-10-30T15:16:54.242Z,19.89
2022-10-30T15:17:54.233Z,19.83
2022-10-30T15:18:54.256Z,19.79
2022-10-30T15:19:54.163Z,19.72
2022-10-30T15:20:54.164Z,19.68
2022-10-30T15:21:54.186Z,19.68
2022-10-30T15:22:54.361Z,19.67
2022-10-30T15:23:54.146Z,19.65
2022-10-30T15:24:54.185Z,19.64
2022-10-30T15:25:54.166Z,19.64
2022-10-30T15:26:54.029Z,19.65
2022-10-30T15:27:54.093Z,19.65
2022-10-30T15:28:54.019Z,19.62
2022-10-30T15:29:53.973Z,19.58
2022-10-30T15:30:54.021Z,19.58